Time;durP1;ratioP1;P1;durP2;ratioP2;P2;SDS_P1;SDS_P2;PMS_P1;PMS_P2;Temp;Humidity;BMP_temperature;BMP_pressure;BME280_temperature;BME280_humidity;BME280_pressure;Samples;Min_cycle;Max_cycle;Signal;HPM_P1;HPM_P2
2022/07/19 00:01:35;;;;;;;6.13;5.00;;;;;;;18.87;100.00;101968.19;4961253;28;20201;-66
2022/07/19 00:04:01;;;;;;;6.40;4.80;;;;;;;18.86;100.00;101956.47;4957855;28;20682;-66
2022/07/19 00:06:26;;;;;;;5.20;4.70;;;;;;;19.08;100.00;101994.91;4959164;28;20707;-66
2022/07/19 00:08:52;;;;;;;6.07;4.80;;;;;;;18.84;100.00;101955.88;4959401;28;20191;-66
2022/07/19 00:11:17;;;;;;;5.50;4.60;;;;;;;18.78;100.00;101983.97;4959550;28;20190;-66
2022/07/19 00:13:43;;;;;;;6.70;5.13;;;;;;;18.87;100.00;101951.88;4960657;28;20212;-66
2022/07/19 00:16:08;;;;;;;6.90;5.10;;;;;;;18.90;100.00;101959.56;4959323;28;20221;-66
2022/07/19 00:18:34;;;;;;;6.15;5.00;;;;;;;18.78;100.00;101983.13;4977352;28;20194;-66
2022/07/19 00:20:59;;;;;;;10.37;4.90;;;;;;;18.72;100.00;101987.53;4957833;28;20194;-66
2022/07/19 00:23:25;;;;;;;6.23;4.77;;;;;;;18.52;100.00;101982.31;4959937;28;20215;-66
2022/07/19 00:25:51;;;;;;;6.20;4.63;;;;;;;18.62;100.00;101976.34;4959354;28;20224;-66
2022/07/19 00:28:16;;;;;;;4.90;4.30;;;;;;;18.79;100.00;101976.63;4959599;28;20277;-66
2022/07/19 00:30:42;;;;;;;5.30;4.33;;;;;;;18.70;100.00;101990.47;4961137;28;21000;-66
2022/07/19 00:33:08;;;;;;;5.20;4.03;;;;;;;18.51;100.00;101983.34;4959703;28;20218;-66
2022/07/19 00:35:38;;;;;;;5.10;4.60;;;;;;;18.76;100.00;101980.63;4962240;28;20198;-66
2022/07/19 00:38:11;;;;;;;5.20;4.40;;;;;;;18.54;100.00;101980.19;4961436;28;21001;-66
2022/07/19 00:40:37;;;;;;;6.53;4.60;;;;;;;18.62;100.00;101979.91;4963301;28;20473;-66
2022/07/19 00:43:05;;;;;;;6.20;4.87;;;;;;;18.43;100.00;101940.19;4963966;28;20460;-66
2022/07/19 00:45:30;;;;;;;7.50;5.13;;;;;;;18.77;100.00;101981.44;4963919;28;20446;-66
2022/07/19 00:47:56;;;;;;;5.90;5.30;;;;;;;18.87;100.00;101977.16;4980321;28;20492;-66
2022/07/19 00:50:22;;;;;;;4.73;4.17;;;;;;;18.46;100.00;101954.16;4966780;28;20194;-66
2022/07/19 00:52:51;;;;;;;7.10;5.37;;;;;;;18.65;100.00;101987.59;4963823;28;20224;-66
2022/07/19 00:55:22;;;;;;;5.70;4.97;;;;;;;18.38;100.00;101953.59;4967843;28;20504;-66
2022/07/19 00:57:48;;;;;;;4.57;3.87;;;;;;;18.69;100.00;101977.97;4963227;28;20443;-66
2022/07/19 01:00:16;;;;;;;6.70;5.30;;;;;;;18.82;100.00;101987.03;4962377;28;20636;-66
2022/07/19 01:02:42;;;;;;;7.37;5.17;;;;;;;18.50;100.00;101989.84;4980319;28;20466;-66
2022/07/19 01:05:09;;;;;;;6.30;5.10;;;;;;;18.36;100.00;101961.97;4977928;28;20442;-66
2022/07/19 01:07:37;;;;;;;7.00;5.50;;;;;;;18.25;100.00;101958.13;4964265;28;20521;-66
2022/07/19 01:10:04;;;;;;;7.00;5.47;;;;;;;18.17;100.00;101987.44;4980974;28;20446;-66
2022/07/19 01:12:29;;;;;;;5.60;4.97;;;;;;;18.24;100.00;101964.59;4965602;28;20465;-66
2022/07/19 01:14:58;;;;;;;5.47;4.90;;;;;;;18.09;100.00;101993.13;4961932;28;20445;-66
2022/07/19 01:17:25;;;;;;;7.33;6.00;;;;;;;18.27;100.00;101982.31;4964416;28;20206;-66
2022/07/19 01:19:50;;;;;;;6.03;5.43;;;;;;;18.04;100.00;101963.91;4977287;28;20469;-66
2022/07/19 01:22:15;;;;;;;6.87;5.20;;;;;;;18.14;100.00;102001.44;4964011;28;20473;-66
2022/07/19 01:24:41;;;;;;;6.10;5.07;;;;;;;18.24;100.00;101967.28;4961590;28;20182;-66
2022/07/19 01:27:07;;;;;;;7.03;5.27;;;;;;;18.11;100.00;102005.44;4978835;28;20193;-66
2022/07/19 01:29:36;;;;;;;6.00;5.20;;;;;;;17.68;100.00;101951.84;4961953;28;20327;-66
2022/07/19 01:32:02;;;;;;;5.43;4.90;;;;;;;18.03;100.00;101995.69;4963084;28;20950;-66
2022/07/19 01:34:27;;;;;;;7.83;5.90;;;;;;;18.05;100.00;101973.72;4961971;28;20446;-66
2022/07/19 01:36:53;;;;;;;5.43;4.83;;;;;;;18.05;100.00;101979.16;4962286;28;20557;-66
2022/07/19 01:39:18;;;;;;;5.47;4.97;;;;;;;17.71;100.00;101969.56;4964095;28;20626;-67
2022/07/19 01:41:44;;;;;;;5.63;5.03;;;;;;;17.77;100.00;101983.09;4979420;28;20250;-67
2022/07/19 01:44:09;;;;;;;6.90;5.37;;;;;;;18.01;100.00;101980.66;4962522;28;20314;-66
2022/07/19 01:46:34;;;;;;;6.80;5.00;;;;;;;18.26;100.00;101986.09;4963349;28;20198;-67
2022/07/19 01:49:00;;;;;;;7.27;5.37;;;;;;;17.85;100.00;101968.47;4976661;28;20720;-67
2022/07/19 01:51:25;;;;;;;6.20;4.90;;;;;;;18.05;100.00;101985.44;4978746;28;20560;-67
2022/07/19 01:53:51;;;;;;;6.80;5.03;;;;;;;17.48;100.00;101910.47;4963386;28;20215;-67
2022/07/19 01:56:16;;;;;;;6.40;4.97;;;;;;;17.87;100.00;101981.78;4962003;28;20202;-67
2022/07/19 01:58:41;;;;;;;5.90;5.30;;;;;;;17.72;100.00;101982.09;4977668;28;20274;-67
2022/07/19 02:01:07;;;;;;;6.43;5.20;;;;;;;17.63;100.00;101970.66;4962558;28;20186;-66
2022/07/19 02:03:32;;;;;;;6.10;5.23;;;;;;;17.52;100.00;101945.03;4964554;28;20210;-67
2022/07/19 02:05:58;;;;;;;8.03;5.43;;;;;;;17.80;100.00;101979.97;4958402;28;20276;-66
2022/07/19 02:08:24;;;;;;;7.40;4.90;;;;;;;17.75;100.00;101979.75;4962554;28;20202;-66
2022/07/19 02:10:50;;;;;;;7.00;5.67;;;;;;;17.61;100.00;101984.41;4959402;28;21000;-66
2022/07/19 02:13:15;;;;;;;8.83;5.23;;;;;;;17.70;100.00;101963.28;4961335;28;20482;-67
2022/07/19 02:15:41;;;;;;;5.80;4.93;;;;;;;17.74;100.00;101967.25;4977405;28;20190;-67
2022/07/19 02:18:06;;;;;;;5.97;5.37;;;;;;;17.66;100.00;101972.94;4959488;28;20579;-67
2022/07/19 02:20:31;;;;;;;6.00;4.80;;;;;;;17.57;100.00;101971.53;4960572;28;20214;-67
2022/07/19 02:22:58;;;;;;;7.30;5.80;;;;;;;17.76;100.00;101981.44;4962567;28;20211;-67
2022/07/19 02:25:24;;;;;;;6.17;5.43;;;;;;;17.66;100.00;101981.06;4958365;28;20210;-66
2022/07/19 02:27:49;;;;;;;8.10;5.63;;;;;;;17.55;100.00;101976.34;4962094;28;20882;-67
2022/07/19 02:30:17;;;;;;;5.77;4.93;;;;;;;17.54;100.00;101980.09;4962825;28;20238;-67
2022/07/19 02:32:42;;;;;;;7.53;5.47;;;;;;;17.49;100.00;101941.94;4963409;28;20241;-67
2022/07/19 02:35:10;;;;;;;6.43;4.97;;;;;;;17.71;100.00;101973.13;4961255;28;20496;-67
2022/07/19 02:37:36;;;;;;;6.60;5.90;;;;;;;17.56;100.00;101940.00;4961324;28;20187;-67
2022/07/19 02:40:03;;;;;;;6.60;5.37;;;;;;;16.77;100.00;101844.50;4959973;28;21204;-67
2022/07/19 02:42:28;;;;;;;6.60;5.37;;;;;;;17.63;100.00;101955.19;4962425;28;20494;-67
2022/07/19 02:44:53;;;;;;;7.77;5.57;;;;;;;17.65;100.00;101971.28;4960991;28;20615;-67
2022/07/19 02:47:19;;;;;;;5.90;5.10;;;;;;;17.64;100.00;101956.03;4961805;28;20297;-67
2022/07/19 02:49:44;;;;;;;6.63;5.43;;;;;;;17.46;100.00;101951.34;4962817;28;20564;-67
2022/07/19 02:52:10;;;;;;;6.60;5.40;;;;;;;17.75;100.00;101968.06;4960406;28;20199;-67
2022/07/19 02:54:35;;;;;;;5.93;5.37;;;;;;;17.79;100.00;101969.31;4962485;28;20269;-67
2022/07/19 02:57:00;;;;;;;7.03;5.80;;;;;;;17.78;100.00;101965.78;4965427;28;20575;-66
2022/07/19 02:59:26;;;;;;;5.90;5.20;;;;;;;17.75;100.00;101971.59;4963424;28;20283;-67
2022/07/19 03:01:51;;;;;;;6.80;5.53;;;;;;;17.20;100.00;101944.19;4960603;28;20244;-67
2022/07/19 03:04:17;;;;;;;6.47;5.70;;;;;;;17.30;100.00;101974.38;4961606;28;20567;-67
2022/07/19 03:06:42;;;;;;;6.80;5.93;;;;;;;17.51;100.00;101956.97;4972937;28;20641;-66
2022/07/19 03:09:07;;;;;;;6.40;5.63;;;;;;;17.60;100.00;101955.63;4960277;28;20277;-67
2022/07/19 03:11:33;;;;;;;6.53;5.40;;;;;;;17.48;100.00;101956.56;4961602;28;20787;-67
2022/07/19 03:13:58;;;;;;;6.90;6.07;;;;;;;17.28;100.00;101967.50;4959305;28;20214;-66
2022/07/19 03:16:24;;;;;;;8.60;6.17;;;;;;;17.35;100.00;101962.88;4962379;28;20325;-66
2022/07/19 03:18:49;;;;;;;7.80;5.63;;;;;;;17.28;100.00;101968.34;4976228;28;20253;-66
2022/07/19 03:21:14;;;;;;;7.43;5.53;;;;;;;17.44;100.00;101961.56;4959058;28;20552;-66
2022/07/19 03:23:40;;;;;;;6.50;5.80;;;;;;;17.53;100.00;101968.44;4976713;28;20202;-66
2022/07/19 03:26:06;;;;;;;8.70;6.47;;;;;;;17.49;100.00;101971.78;4960372;28;20668;-66
2022/07/19 03:28:33;;;;;;;6.87;5.93;;;;;;;17.54;100.00;101966.53;4960824;28;20264;-66
2022/07/19 03:30:58;;;;;;;6.63;5.67;;;;;;;17.39;100.00;101951.38;4961977;28;20190;-66
2022/07/19 03:33:24;;;;;;;6.93;5.77;;;;;;;17.34;100.00;101931.41;4957791;28;20476;-66
2022/07/19 03:35:49;;;;;;;7.50;6.33;;;;;;;17.49;100.00;101958.22;4959113;28;20202;-66
2022/07/19 03:38:16;;;;;;;5.93;5.33;;;;;;;17.54;100.00;101958.41;4960155;28;20194;-66
2022/07/19 03:40:43;;;;;;;7.90;6.57;;;;;;;17.18;100.00;101959.81;4962494;28;20237;-66
2022/07/19 03:43:08;;;;;;;6.60;5.17;;;;;;;17.60;100.00;101968.38;4960206;28;21270;-66
2022/07/19 03:45:34;;;;;;;6.20;5.50;;;;;;;17.53;100.00;101973.00;4960985;28;20556;-66
2022/07/19 03:48:00;;;;;;;6.63;6.03;;;;;;;17.48;100.00;101975.56;4960716;28;20186;-66
2022/07/19 03:50:26;;;;;;;6.80;5.80;;;;;;;17.34;100.00;101962.03;4974595;28;20182;-66
2022/07/19 03:52:51;;;;;;;7.73;6.40;;;;;;;17.43;100.00;101978.06;4960058;28;20877;-66
2022/07/19 03:55:16;;;;;;;6.83;5.60;;;;;;;17.25;100.00;101936.25;4960285;28;20197;-66
2022/07/19 03:57:42;;;;;;;6.30;5.53;;;;;;;17.47;100.00;101976.59;4961109;28;20540;-66
2022/07/19 04:00:08;;;;;;;7.23;6.50;;;;;;;17.45;100.00;101954.28;4960400;28;20207;-66
2022/07/19 04:02:33;;;;;;;6.50;5.80;;;;;;;17.22;100.00;101971.09;4962733;28;20206;-66
2022/07/19 04:04:59;;;;;;;6.70;6.00;;;;;;;17.39;100.00;101969.56;4959865;28;20808;-67
2022/07/19 04:07:24;;;;;;;6.83;5.80;;;;;;;17.56;100.00;101968.00;4959447;28;20783;-66
2022/07/19 04:09:49;;;;;;;6.63;5.37;;;;;;;17.46;100.00;101966.78;4973951;28;20187;-66
2022/07/19 04:12:15;;;;;;;8.77;7.17;;;;;;;17.45;100.00;101963.25;4976636;28;20385;-67
2022/07/19 04:14:40;;;;;;;6.73;5.77;;;;;;;17.50;100.00;101951.72;4961759;28;20217;-66
2022/07/19 04:17:06;;;;;;;7.43;5.80;;;;;;;17.72;100.00;101960.38;4963778;28;20668;-66
2022/07/19 04:19:32;;;;;;;8.30;6.50;;;;;;;17.51;100.00;101961.56;4965927;28;20217;-67
2022/07/19 04:21:58;;;;;;;8.43;6.57;;;;;;;17.36;100.00;101964.56;4964683;28;20232;-66
2022/07/19 04:24:23;;;;;;;6.83;6.13;;;;;;;17.35;100.00;101966.41;4964100;28;20457;-66
2022/07/19 04:26:49;;;;;;;7.67;6.57;;;;;;;17.51;100.00;101950.69;4966107;28;20221;-66
2022/07/19 04:29:14;;;;;;;6.37;5.47;;;;;;;17.74;100.00;101958.28;4965451;28;20182;-66
2022/07/19 04:31:39;;;;;;;7.63;6.23;;;;;;;17.68;100.00;101957.28;4965847;28;20194;-66
2022/07/19 04:34:05;;;;;;;8.57;6.17;;;;;;;17.58;100.00;101948.78;4958959;28;20268;-67
2022/07/19 04:36:31;;;;;;;7.10;6.17;;;;;;;17.49;100.00;101939.22;4967756;28;20203;-66
2022/07/19 04:38:57;;;;;;;9.40;7.13;;;;;;;17.47;100.00;101923.16;4982476;28;20541;-66
2022/07/19 04:41:22;;;;;;;6.93;6.03;;;;;;;17.76;100.00;101948.88;4967082;28;20537;-67
2022/07/19 04:43:48;;;;;;;9.30;6.50;;;;;;;17.91;100.00;101966.75;4970260;28;20260;-66
2022/07/19 04:46:13;;;;;;;7.77;6.10;;;;;;;17.86;100.00;101969.28;4970923;28;20210;-66
2022/07/19 04:48:40;;;;;;;6.80;6.00;;;;;;;17.98;100.00;101968.34;4969592;28;20187;-67
2022/07/19 04:51:06;;;;;;;6.13;5.40;;;;;;;17.78;100.00;101951.38;4967930;28;20285;-66
2022/07/19 04:53:32;;;;;;;8.27;6.43;;;;;;;17.82;100.00;101928.19;4969597;28;20533;-66
2022/07/19 04:55:57;;;;;;;8.70;6.90;;;;;;;17.92;100.00;101954.84;4970434;28;20430;-67
2022/07/19 04:58:23;;;;;;;7.20;6.00;;;;;;;18.20;100.00;101965.28;4970733;28;20242;-66
2022/07/19 05:00:48;;;;;;;9.33;6.40;;;;;;;18.24;100.00;101961.03;4970804;28;20663;-66
2022/07/19 05:03:13;;;;;;;6.70;6.00;;;;;;;18.17;100.00;101961.09;4968788;28;20203;-66
2022/07/19 05:05:39;;;;;;;8.90;6.73;;;;;;;17.94;100.00;101950.03;4970271;28;20186;-67
2022/07/19 05:08:04;;;;;;;8.40;5.87;;;;;;;18.16;100.00;101954.00;4970683;28;20715;-66
2022/07/19 05:10:30;;;;;;;8.53;6.57;;;;;;;18.25;100.00;101957.25;4967618;28;20188;-67
2022/07/19 05:12:55;;;;;;;6.90;5.60;;;;;;;18.43;100.00;101975.50;4968385;28;20738;-67
2022/07/19 05:15:21;;;;;;;7.27;6.40;;;;;;;18.24;100.00;101951.00;4968663;28;20201;-67
2022/07/19 05:17:46;;;;;;;7.80;6.50;;;;;;;18.34;100.00;101971.38;4968593;28;20217;-67
2022/07/19 05:20:15;;;;;;;8.60;6.20;;;;;;;18.61;100.00;101971.97;4969733;28;20958;-67
2022/07/19 05:22:40;;;;;;;7.80;6.53;;;;;;;18.51;100.00;101977.91;4969531;28;20210;-67
2022/07/19 05:25:06;;;;;;;11.40;7.77;;;;;;;18.81;100.00;101966.38;4968711;28;20426;-67
2022/07/19 05:27:31;;;;;;;7.97;7.17;;;;;;;18.65;100.00;101951.44;4965992;28;20609;-67
2022/07/19 05:29:57;;;;;;;8.57;7.20;;;;;;;18.90;100.00;101970.44;4966236;28;20221;-66
2022/07/19 05:32:22;;;;;;;8.67;6.90;;;;;;;18.94;100.00;101967.03;4966268;28;20201;-66
2022/07/19 05:34:47;;;;;;;11.27;6.30;;;;;;;18.86;100.00;101969.22;4965234;28;20199;-67
2022/07/19 05:37:13;;;;;;;7.60;6.77;;;;;;;18.85;100.00;101943.94;4967017;28;20190;-67
2022/07/19 05:39:39;;;;;;;7.87;6.23;;;;;;;18.97;100.00;101952.97;4967667;28;20397;-67
2022/07/19 05:42:04;;;;;;;11.70;6.03;;;;;;;19.01;100.00;101958.81;4965830;28;20194;-67
2022/07/19 05:44:30;;;;;;;7.23;6.20;;;;;;;19.19;100.00;101971.56;4966891;28;20187;-67
2022/07/19 05:46:55;;;;;;;9.33;6.40;;;;;;;19.05;100.00;101943.69;4965633;28;20186;-67
2022/07/19 05:49:21;;;;;;;7.07;6.03;;;;;;;19.27;100.00;101973.97;4966390;28;20197;-67
2022/07/19 05:51:46;;;;;;;7.93;6.30;;;;;;;19.29;100.00;101951.97;4966542;28;20195;-67
2022/07/19 05:54:11;;;;;;;8.87;6.13;;;;;;;19.38;100.00;101962.31;4980990;28;20269;-66
2022/07/19 05:56:37;;;;;;;6.50;5.67;;;;;;;19.39;100.00;101963.97;4980382;28;20190;-67
2022/07/19 05:59:02;;;;;;;6.73;5.60;;;;;;;19.58;100.00;101981.03;4967196;28;20214;-66
2022/07/19 06:01:28;;;;;;;7.60;5.53;;;;;;;19.43;100.00;101967.88;4964310;28;20236;-67
2022/07/19 06:03:57;;;;;;;6.47;4.90;;;;;;;19.38;100.00;101961.44;4978859;28;20221;-67
2022/07/19 06:06:24;;;;;;;5.53;4.90;;;;;;;19.56;100.00;101977.75;4980478;28;20243;-67
2022/07/19 06:08:49;;;;;;;6.90;6.10;;;;;;;19.58;100.00;101982.94;4962771;28;20457;-66
2022/07/19 06:11:16;;;;;;;7.57;6.00;;;;;;;19.56;100.00;101966.03;4962928;28;20445;-66
2022/07/19 06:13:43;;;;;;;7.80;6.70;;;;;;;19.62;100.00;101970.56;4966002;28;20592;-67
2022/07/19 06:16:10;;;;;;;7.93;5.53;;;;;;;19.62;100.00;101970.56;4964535;28;20522;-67
2022/07/19 06:18:36;;;;;;;6.77;5.90;;;;;;;19.62;100.00;101967.84;4965757;28;20433;-67
2022/07/19 06:21:10;;;;;;;7.50;6.70;;;;;;;19.74;100.00;101965.19;4964502;28;20839;-67
2022/07/19 06:23:36;;;;;;;8.33;5.83;;;;;;;19.81;100.00;101971.34;4965277;28;20470;-67
2022/07/19 06:26:02;;;;;;;7.20;5.50;;;;;;;19.89;100.00;101962.84;4963098;28;20431;-67
2022/07/19 06:28:29;;;;;;;8.80;5.20;;;;;;;19.97;100.00;101964.41;4964783;28;20453;-67
2022/07/19 06:30:55;;;;;;;8.70;6.83;;;;;;;19.83;100.00;101955.59;4963971;28;20878;-67
2022/07/19 06:33:21;;;;;;;9.10;6.50;;;;;;;20.02;100.00;101973.53;4967573;28;20202;-67
2022/07/19 06:35:46;;;;;;;6.60;5.93;;;;;;;19.93;100.00;101927.78;4961845;28;20205;-66
2022/07/19 06:38:12;;;;;;;7.90;5.67;;;;;;;20.17;100.00;101962.16;4960187;28;20450;-67
2022/07/19 06:40:38;;;;;;;7.47;6.27;;;;;;;20.08;100.00;101947.25;4958878;28;20214;-67
2022/07/19 06:43:03;;;;;;;6.10;5.47;;;;;;;20.27;100.00;101964.31;4964324;28;20214;-67
2022/07/19 06:45:29;;;;;;;8.07;6.40;;;;;;;20.33;100.00;101947.00;4963354;28;20663;-67
2022/07/19 06:47:54;;;;;;;7.47;6.47;;;;;;;19.82;100.00;101859.50;4981294;28;20582;-66
2022/07/19 06:50:20;;;;;;;7.13;5.80;;;;;;;20.54;100.00;101957.34;4963457;28;20186;-67
2022/07/19 06:52:46;;;;;;;8.00;6.40;;;;;;;20.56;100.00;101965.28;4964223;28;20218;-67
2022/07/19 06:55:11;;;;;;;7.37;6.47;;;;;;;20.58;100.00;101943.25;4963722;28;20438;-67
2022/07/19 06:57:38;;;;;;;6.83;5.40;;;;;;;20.76;100.00;101952.09;4981095;28;20195;-67
2022/07/19 07:00:06;;;;;;;6.90;5.50;;;;;;;20.93;100.00;101945.91;4962853;28;20305;-67
2022/07/19 07:02:32;;;;;;;5.47;4.77;;;;;;;20.90;100.00;101936.31;4963692;28;20465;-67
2022/07/19 07:04:57;;;;;;;8.00;5.70;;;;;;;20.87;100.00;101925.06;4963854;28;20915;-67
2022/07/19 07:07:22;;;;;;;6.17;5.57;;;;;;;21.13;100.00;101956.41;4964140;28;20195;-66
2022/07/19 07:09:48;;;;;;;7.83;6.43;;;;;;;21.12;100.00;101938.38;4964788;28;20662;-67
2022/07/19 07:12:13;;;;;;;8.60;6.13;;;;;;;21.46;100.00;101903.00;4963312;28;20237;-67
2022/07/19 07:14:39;;;;;;;10.33;6.93;;;;;;;21.55;100.00;101910.56;4963084;28;20190;-67
2022/07/19 07:17:04;;;;;;;6.47;5.80;;;;;;;21.68;100.00;101925.78;4963548;28;20649;-67
2022/07/19 07:19:30;;;;;;;7.10;5.30;;;;;;;21.76;100.00;101921.84;4978311;28;20218;-67
2022/07/19 07:21:59;;;;;;;8.63;6.90;;;;;;;21.67;100.00;101896.84;4964094;28;20229;-67
2022/07/19 07:24:25;;;;;;;8.83;5.80;;;;;;;22.08;100.00;101892.03;4978388;28;20201;-67
2022/07/19 07:26:50;;;;;;;7.17;5.70;;;;;;;22.18;100.00;101918.69;4963783;28;20777;-67
2022/07/19 07:29:16;;;;;;;7.60;4.93;;;;;;;22.08;100.00;101916.63;4962945;28;20186;-66
2022/07/19 07:31:41;;;;;;;5.57;4.97;;;;;;;22.17;100.00;101912.41;4979638;28;20278;-67
2022/07/19 07:34:07;;;;;;;5.93;5.10;;;;;;;22.44;100.00;101906.22;4962869;28;20203;-67
2022/07/19 07:36:32;;;;;;;6.50;4.83;;;;;;;22.42;100.00;101887.34;4961757;28;20277;-67
2022/07/19 07:38:58;;;;;;;5.90;4.67;;;;;;;22.55;100.00;101899.81;4978024;28;20216;-66
2022/07/19 07:41:23;;;;;;;8.40;5.40;;;;;;;22.75;100.00;101900.06;4962438;28;20187;-67
2022/07/19 07:43:49;;;;;;;7.53;5.67;;;;;;;22.66;100.00;101896.13;4962343;28;20210;-67
2022/07/19 07:46:14;;;;;;;5.83;5.00;;;;;;;22.95;100.00;101896.78;4962783;28;20190;-67
2022/07/19 07:48:39;;;;;;;6.67;5.20;;;;;;;22.96;100.00;101881.19;4962903;28;20186;-67
2022/07/19 07:51:05;;;;;;;6.13;4.27;;;;;;;22.96;100.00;101903.09;4962249;28;20193;-67
2022/07/19 07:53:30;;;;;;;4.37;3.73;;;;;;;23.21;100.00;101889.69;4962590;28;20219;-67
2022/07/19 07:55:56;;;;;;;4.80;4.10;;;;;;;22.92;100.00;101871.84;4977494;28;20190;-67
2022/07/19 07:58:21;;;;;;;4.83;3.63;;;;;;;23.02;100.00;101886.47;4964030;28;20191;-67
2022/07/19 08:00:47;;;;;;;5.33;3.57;;;;;;;23.14;100.00;101894.56;4962629;28;20230;-67
2022/07/19 08:03:12;;;;;;;5.80;3.53;;;;;;;22.97;100.00;101866.44;4962632;28;20260;-67
2022/07/19 08:05:39;;;;;;;4.97;3.23;;;;;;;22.97;100.00;101861.81;4962674;28;20194;-67
2022/07/19 08:08:04;;;;;;;4.27;3.63;;;;;;;23.29;100.00;101873.88;4963513;28;20187;-67
2022/07/19 08:10:32;;;;;;;5.37;3.10;;;;;;;23.34;100.00;101887.59;4962891;28;20426;-67
2022/07/19 08:12:58;;;;;;;4.20;3.57;;;;;;;23.37;100.00;101859.72;4964623;28;20250;-67
2022/07/19 08:15:24;;;;;;;3.67;3.27;;;;;;;23.49;100.00;101874.09;4963525;28;20450;-67
2022/07/19 08:17:49;;;;;;;5.80;3.13;;;;;;;23.82;100.00;101870.25;4962771;28;20207;-67
2022/07/19 08:20:15;;;;;;;4.30;3.43;;;;;;;23.74;100.00;101876.22;4962166;28;20214;-67
2022/07/19 08:22:40;;;;;;;5.40;3.13;;;;;;;23.75;100.00;101866.94;4961875;28;20630;-67
2022/07/19 08:25:07;;;;;;;5.30;3.33;;;;;;;24.25;100.00;101854.63;4976291;28;20186;-67
2022/07/19 08:27:33;;;;;;;5.40;3.20;;;;;;;24.07;100.00;101866.88;4964786;28;20213;-67
2022/07/19 08:29:59;;;;;;;4.57;3.13;;;;;;;23.72;100.00;101829.09;4978024;28;20461;-67
2022/07/19 08:32:24;;;;;;;6.20;3.47;;;;;;;23.96;100.00;101853.38;4964623;28;20450;-67
2022/07/19 08:34:50;;;;;;;3.77;3.20;;;;;;;24.19;100.00;101850.22;4976836;28;21024;-67
2022/07/19 08:37:15;;;;;;;3.50;3.13;;;;;;;24.34;100.00;101857.69;4961667;28;20190;-67
2022/07/19 08:39:41;;;;;;;4.23;2.87;;;;;;;24.76;100.00;101859.53;4963085;28;20214;-67
2022/07/19 08:42:07;;;;;;;4.03;3.27;;;;;;;24.88;100.00;101840.94;4961592;28;20198;-67
2022/07/19 08:44:34;;;;;;;6.30;3.23;;;;;;;24.87;100.00;101857.66;4976256;28;20191;-67
2022/07/19 08:47:01;;;;;;;4.03;2.57;;;;;;;24.66;100.00;101851.28;4964518;28;20197;-67
2022/07/19 08:49:26;;;;;;;3.30;2.70;;;;;;;24.70;100.00;101852.38;4977106;28;20438;-67
2022/07/19 08:51:52;;;;;;;3.17;2.53;;;;;;;24.74;100.00;101842.53;4961358;28;20436;-67
2022/07/19 08:54:19;;;;;;;3.67;2.53;;;;;;;25.31;100.00;101844.28;4961422;28;20206;-67
2022/07/19 08:59:28;;;;;;;3.73;2.53;;;;;;;24.97;100.00;101852.19;4960535;28;20577;-67
2022/07/19 09:01:53;;;;;;;3.63;3.00;;;;;;;25.83;100.00;101847.88;4962851;28;20439;-67
2022/07/19 09:04:21;;;;;;;3.17;2.70;;;;;;;25.38;100.00;101846.78;4980222;28;20218;-67
2022/07/19 09:06:50;;;;;;;3.23;2.83;;;;;;;25.24;100.00;101850.06;4964180;28;20575;-67
2022/07/19 09:09:18;;;;;;;3.40;2.90;;;;;;;25.73;100.00;101843.19;4965553;28;20422;-67
2022/07/19 09:11:49;;;;;;;3.00;2.70;;;;;;;26.10;100.00;101842.06;4980139;28;20481;-67
2022/07/19 09:14:36;;;;;;;2.60;2.40;;;;;;;25.74;100.00;101852.25;4964734;28;20544;-67
2022/07/19 09:17:06;;;;;;;7.80;2.80;;;;;;;25.40;100.00;101847.31;4978806;28;20442;-67
2022/07/19 09:19:40;;;;;;;2.60;2.40;;;;;;;25.60;100.00;101841.84;4965495;28;20465;-67
2022/07/19 09:22:13;;;;;;;3.03;2.70;;;;;;;25.76;100.00;101839.91;4964576;28;20427;-67
2022/07/19 09:24:41;;;;;;;2.60;2.40;;;;;;;25.87;100.00;101838.00;4966678;28;20449;-67
2022/07/19 09:27:15;;;;;;;3.40;2.80;;;;;;;25.99;100.00;101835.75;4964335;28;20906;-67
2022/07/19 09:29:46;;;;;;;2.53;2.30;;;;;;;25.86;100.00;101845.44;4979621;28;20421;-67
2022/07/19 09:32:20;;;;;;;3.33;1.90;;;;;;;25.85;100.00;101842.94;4964528;28;20426;-68
2022/07/19 09:34:48;;;;;;;6.10;3.10;;;;;;;25.98;100.00;101844.28;4965722;28;20442;-67
2022/07/19 09:37:21;;;;;;;3.23;2.30;;;;;;;26.28;100.00;101844.19;4965975;28;20517;-67
2022/07/19 09:39:49;;;;;;;3.80;2.70;;;;;;;26.25;100.00;101835.69;4966855;28;20465;-67
2022/07/19 09:42:17;;;;;;;5.00;3.07;;;;;;;26.76;100.00;101829.97;4964011;28;20445;-67
2022/07/19 09:44:44;;;;;;;5.53;2.40;;;;;;;26.81;100.00;101829.94;4964724;28;20508;-67
2022/07/19 09:47:09;;;;;;;5.83;2.27;;;;;;;27.30;100.00;101829.09;4962284;28;20497;-66
2022/07/19 09:49:35;;;;;;;5.40;2.70;;;;;;;27.02;100.00;101798.44;4962860;28;20814;-67
2022/07/19 09:52:01;;;;;;;5.47;2.40;;;;;;;27.50;100.00;101800.53;4964425;28;20570;-67
2022/07/19 09:54:29;;;;;;;5.30;2.40;;;;;;;27.39;100.00;101815.53;4963776;28;20277;-67
2022/07/19 09:56:56;;;;;;;3.10;2.60;;;;;;;27.08;100.00;101826.75;4963787;28;20430;-67
2022/07/19 09:59:23;;;;;;;2.63;1.90;;;;;;;26.51;100.00;101796.00;4963647;28;20555;-67
2022/07/19 10:01:52;;;;;;;3.60;2.00;;;;;;;26.99;100.00;101826.56;4962990;28;20425;-67
2022/07/19 10:04:21;;;;;;;4.40;2.17;;;;;;;26.78;100.00;101825.84;4962416;28;20447;-67
2022/07/19 10:06:49;;;;;;;2.80;2.20;;;;;;;27.29;100.00;101826.63;4964306;28;20422;-67
2022/07/19 10:09:18;;;;;;;3.40;1.97;;;;;;;27.16;100.00;101828.91;4965094;28;20520;-67
2022/07/19 10:11:45;;;;;;;6.20;2.10;;;;;;;27.36;100.00;101818.84;4963387;28;20433;-67
2022/07/19 10:14:12;;;;;;;2.20;2.00;;;;;;;28.03;100.00;101819.88;4963736;28;20450;-67
2022/07/19 10:17:01;;;;;;;2.50;1.97;;;;;;;28.06;100.00;101819.31;4969653;28;20512;-67
2022/07/19 10:19:29;;;;;;;2.03;1.93;;;;;;;27.67;100.00;101814.72;4966289;28;20548;-67
2022/07/19 10:21:55;;;;;;;3.73;1.77;;;;;;;27.89;100.00;101791.38;4965908;28;20806;-67
2022/07/19 10:24:45;;;;;;;2.03;1.80;;;;;;;27.90;100.00;101806.78;4970021;28;20476;-67
2022/07/19 10:27:13;;;;;;;1.93;1.70;;;;;;;27.72;100.00;101816.59;4980813;28;20792;-67
2022/07/19 10:29:38;;;;;;;2.20;2.00;;;;;;;27.73;100.00;101810.78;4965395;28;20431;-67
2022/07/19 10:32:09;;;;;;;3.13;1.90;;;;;;;28.11;100.00;101804.63;4965881;28;20964;-67
2022/07/19 10:34:35;;;;;;;2.43;1.80;;;;;;;28.10;100.00;101794.72;4966982;28;20609;-67
2022/07/19 10:37:01;;;;;;;3.50;1.83;;;;;;;27.91;100.00;101784.44;4965145;28;20424;-67
2022/07/19 10:39:31;;;;;;;6.03;1.40;;;;;;;27.83;100.00;101800.78;4980081;28;20940;-67
2022/07/19 10:42:18;;;;;;;2.30;1.80;;;;;;;27.68;100.00;101799.81;4962970;28;20194;-67
2022/07/19 10:44:56;;;;;;;3.73;2.23;;;;;;;28.56;100.00;101785.88;4965363;28;20422;-67
2022/07/19 10:47:22;;;;;;;2.83;2.40;;;;;;;28.20;100.00;101789.06;4964947;28;20434;-67
2022/07/19 10:49:48;;;;;;;2.23;1.87;;;;;;;28.29;100.00;101754.22;4966604;28;20430;-67
2022/07/19 10:52:32;;;;;;;2.90;2.10;;;;;;;28.53;100.00;101787.28;4965699;28;20193;-67
2022/07/19 10:55:27;;;;;;;4.90;2.30;;;;;;;28.75;100.00;101789.44;4981132;28;20508;-67
2022/07/19 10:57:58;;;;;;;2.67;1.80;;;;;;;28.41;100.00;101789.63;4981114;28;20438;-67
2022/07/19 11:00:30;;;;;;;1.77;1.67;;;;;;;28.40;100.00;101787.97;4980623;28;20466;-67
2022/07/19 11:03:21;;;;;;;7.30;2.20;;;;;;;28.91;100.00;101789.22;4964943;28;20528;-67
2022/07/19 11:05:50;;;;;;;5.63;2.10;;;;;;;28.46;100.00;101789.56;4966599;28;20418;-67
2022/07/19 11:08:16;;;;;;;2.20;2.00;;;;;;;28.43;100.00;101784.66;4965108;28;20895;-67
2022/07/19 11:10:42;;;;;;;2.60;1.90;;;;;;;28.35;100.00;101766.81;4979825;28;20433;-67
2022/07/19 11:13:07;;;;;;;1.90;1.77;;;;;;;29.17;100.00;101740.75;4965682;28;21034;-67
2022/07/19 11:15:34;;;;;;;6.20;1.80;;;;;;;28.79;100.00;101776.69;4965215;28;20430;-67
2022/07/19 11:18:05;;;;;;;1.60;1.50;;;;;;;28.98;100.00;101773.91;4965040;28;20183;-67